LFTW/FNI METAR and TAF weather

Enter ICAO airport designator
Station Type Date Time Source
LFTW METAR 2019/08/18 08:30 UTC NOAA

LFTW 180830Z AUTO 15012KT 120V180 9999 BKN013 OVC019 25/21 Q1015 BECMG NSC


Station Type Date Time Source
LFTW Decoded METAR 2019/08/18 08:30 UTC NOAA

Station name not available
Aug 18, 2019 - 04:30 AM EDT / 2019.08.18 0830 UTC
Wind: from the SSE (150 degrees) at 14 MPH (12 KT) (direction variable):0
Visibility: greater than 7 mile(s):0
Sky conditions: overcast
Temperature: 77 F (25 C)
Dew Point: 69 F (21 C)
Relative Humidity: 78%
Pressure (altimeter): 29.97 in. Hg (1015 hPa)
ob: LFTW 180830Z AUTO 15012KT 120V180 9999 BKN013 OVC019 25/21 Q1015 BECMG NSC
cycle: 8

Station Type Date Time Source
LFTW TAF 2019/08/18 09:42 UTC NOAA

TAF LFTW 180800Z 1809/1909 13010KT 9999 BKN012
BECMG 1811/1813 19012KT SCT030
BECMG 1821/1823 VRB02KT OVC008
BECMG 1823/1901 2000 BR OVC005
BECMG 1906/1908 9999 NSW NSC

Example: see airport list